Time;durP1;ratioP1;P1;durP2;ratioP2;P2;SDS_P1;SDS_P2;PMS_P1;PMS_P2;Temp;Humidity;BMP_temperature;BMP_pressure;BME280_temperature;BME280_humidity;BME280_pressure;Samples;Min_cycle;Max_cycle;Signal;HPM_P1;HPM_P2
2022/05/16 00:03:12;;;;;;;3.42;2.80;;;;;;;12.50;65.65;100391.00;10481897;28;20040;-84
2022/05/16 00:08:13;;;;;;;4.43;3.13;;;;;;;12.24;67.11;100384.81;10499192;28;20072;-84
2022/05/16 00:13:15;;;;;;;11.18;3.53;;;;;;;12.33;66.60;100389.78;10487249;28;20101;-84
2022/05/16 00:18:16;;;;;;;4.18;3.10;;;;;;;12.08;67.19;100383.56;10477105;28;20044;-84
2022/05/16 00:23:18;;;;;;;4.07;2.80;;;;;;;11.90;68.08;100386.81;10561802;28;20101;-84
2022/05/16 00:28:19;;;;;;;4.47;2.83;;;;;;;12.16;67.61;100392.09;10561269;28;20039;-84
2022/05/16 00:33:21;;;;;;;3.42;2.25;;;;;;;11.89;67.83;100391.22;10562489;28;20048;-84
2022/05/16 00:38:22;;;;;;;5.18;2.90;;;;;;;11.56;69.42;100391.31;10561569;28;20044;-84
2022/05/16 00:43:43;;;;;;;4.10;2.58;;;;;;;11.56;70.00;100401.84;10473238;28;20070;-84
2022/05/16 00:48:45;;;;;;;4.63;2.58;;;;;;;11.77;68.81;100394.19;10559948;28;20048;-84
2022/05/16 00:53:50;;;;;;;4.15;2.25;;;;;;;11.78;69.06;100399.44;10473045;28;20044;-84
2022/05/16 00:58:52;;;;;;;4.43;2.53;;;;;;;11.77;69.01;100397.69;10474890;28;20105;-84
2022/05/16 01:09:14;;;;;;;5.20;2.88;;;;;;;11.57;69.75;100407.97;10563084;28;20147;-84
2022/05/16 01:14:42;;;;;;;5.00;2.55;;;;;;;11.20;71.79;100406.41;10461591;28;20052;-84
2022/05/16 01:19:45;;;;;;;4.40;2.30;;;;;;;11.23;71.63;100401.06;10480982;28;20043;-84
2022/05/16 01:24:46;;;;;;;3.90;2.40;;;;;;;11.19;71.89;100395.91;10587002;28;20048;-84
2022/05/16 01:29:49;;;;;;;4.88;2.00;;;;;;;11.40;70.73;100400.56;10574219;28;20052;-84
2022/05/16 01:34:50;;;;;;;4.97;2.15;;;;;;;11.57;69.59;100397.44;10477810;28;20048;-84
2022/05/16 01:39:52;;;;;;;4.60;2.40;;;;;;;11.39;70.22;100388.31;10459514;28;20048;-84
2022/05/16 01:44:53;;;;;;;4.18;2.67;;;;;;;11.43;70.10;100389.97;10565722;28;20044;-84
2022/05/16 01:49:55;;;;;;;5.43;2.20;;;;;;;11.32;70.47;100386.75;10566606;28;20093;-84
2022/05/16 01:54:56;;;;;;;5.57;2.83;;;;;;;11.26;70.77;100374.66;10479945;28;20044;-84
2022/05/16 01:59:58;;;;;;;4.88;2.25;;;;;;;11.03;71.26;100369.19;10480451;28;20440;-84
2022/05/16 02:04:59;;;;;;;5.55;2.35;;;;;;;10.91;72.19;100372.16;10485385;28;20073;-83
2022/05/16 02:10:01;;;;;;;3.63;1.85;;;;;;;10.86;72.39;100367.91;10488944;28;20040;-83
2022/05/16 02:15:04;;;;;;;7.97;2.35;;;;;;;10.90;71.71;100360.78;10488757;28;20052;-83
2022/05/16 02:20:07;;;;;;;4.82;2.72;;;;;;;11.14;71.06;100351.31;10491868;28;20048;-83
2022/05/16 02:25:09;;;;;;;4.45;2.47;;;;;;;11.06;71.11;100354.16;10497014;28;20054;-83
2022/05/16 02:30:11;;;;;;;5.47;2.63;;;;;;;11.01;71.02;100342.06;10583452;28;20067;-83
2022/05/16 02:35:13;;;;;;;6.15;2.88;;;;;;;10.84;71.64;100351.28;10502693;28;20047;-83
2022/05/16 02:40:15;;;;;;;5.00;2.88;;;;;;;10.79;71.54;100353.19;10508232;28;20062;-83
2022/05/16 02:45:17;;;;;;;7.30;2.70;;;;;;;10.56;73.07;100345.91;10595893;28;20035;-83
2022/05/16 02:50:23;;;;;;;4.65;2.80;;;;;;;10.73;72.36;100337.59;10509637;28;20031;-83
2022/05/16 02:55:24;;;;;;;3.53;2.17;;;;;;;10.35;74.11;100349.09;10510252;28;20049;-83
2022/05/16 03:00:26;;;;;;;6.45;2.95;;;;;;;10.42;73.74;100341.94;10564347;28;20044;-83
2022/05/16 03:05:27;;;;;;;4.35;2.35;;;;;;;10.44;73.55;100334.88;10567759;28;20051;-83
2022/05/16 03:10:29;;;;;;;7.32;3.30;;;;;;;10.30;74.33;100338.72;10500733;28;20055;-84
2022/05/16 03:15:31;;;;;;;5.10;2.47;;;;;;;10.30;74.07;100330.84;10475320;28;20485;-83
2022/05/16 03:20:32;;;;;;;4.80;2.58;;;;;;;10.29;74.10;100338.75;10470635;28;20065;-83
2022/05/16 03:25:34;;;;;;;3.75;2.38;;;;;;;10.00;75.80;100328.94;10486203;28;20074;-83
2022/05/16 03:30:36;;;;;;;5.75;3.15;;;;;;;9.87;75.93;100328.38;10485786;28;20036;-83
2022/05/16 03:35:37;;;;;;;5.05;2.95;;;;;;;10.28;74.46;100326.53;10479505;28;20044;-83
2022/05/16 03:40:42;;;;;;;5.63;2.63;;;;;;;10.34;73.77;100327.22;10476240;28;20043;-84
2022/05/16 03:45:43;;;;;;;4.78;2.90;;;;;;;10.16;74.22;100326.81;10562331;28;20052;-83
2022/05/16 03:50:45;;;;;;;3.58;2.65;;;;;;;10.00;75.18;100321.94;10477787;28;20040;-83
2022/05/16 03:55:47;;;;;;;5.07;2.55;;;;;;;10.28;73.28;100321.28;10477134;28;20052;-84
2022/05/16 04:00:49;;;;;;;5.68;2.38;;;;;;;10.34;72.60;100315.84;10500758;28;20558;-83
2022/05/16 04:05:51;;;;;;;4.35;2.55;;;;;;;10.40;72.35;100314.81;10487915;28;20494;-83
2022/05/16 04:10:52;;;;;;;4.80;2.70;;;;;;;10.41;72.35;100309.53;10458002;28;20044;-83
2022/05/16 04:15:56;;;;;;;5.18;3.08;;;;;;;10.57;71.54;100312.59;10475325;28;20052;-84
2022/05/16 04:21:04;;;;;;;4.40;2.30;;;;;;;10.82;70.67;100300.50;10458927;28;20075;-84
2022/05/16 04:26:06;;;;;;;4.82;2.70;;;;;;;10.80;70.80;100301.44;10457244;28;20048;-84
2022/05/16 04:31:08;;;;;;;4.32;2.45;;;;;;;11.07;69.36;100307.69;10499040;28;20052;-84
2022/05/16 04:36:09;;;;;;;4.93;2.58;;;;;;;11.10;68.99;100308.44;10561008;28;20044;-84
2022/05/16 04:46:31;;;;;;;4.00;2.50;;;;;;;11.22;68.95;100306.38;10476254;28;20051;-83
2022/05/16 04:51:32;;;;;;;4.28;2.28;;;;;;;11.72;66.19;100306.56;10475412;28;20044;-83
2022/05/16 04:56:34;;;;;;;3.78;2.42;;;;;;;11.69;65.76;100312.81;10460618;28;20052;-83
2022/05/16 05:01:36;;;;;;;4.22;2.13;;;;;;;12.15;65.48;100315.75;10474389;28;20371;-82
2022/05/16 05:06:39;;;;;;;3.55;1.85;;;;;;;12.30;64.55;100307.28;10559597;28;20054;-83
2022/05/16 05:17:08;;;;;;;3.15;2.05;;;;;;;12.68;63.55;100315.66;10490831;28;20036;-83
2022/05/16 05:22:09;;;;;;;2.42;1.77;;;;;;;12.87;63.60;100314.06;10493060;28;20040;-83
2022/05/16 05:27:11;;;;;;;3.92;2.45;;;;;;;13.29;61.70;100308.97;10477080;28;20055;-83
2022/05/16 05:32:12;;;;;;;2.55;1.70;;;;;;;13.40;61.90;100310.34;10476893;28;20044;-83
2022/05/16 05:37:15;;;;;;;3.83;1.83;;;;;;;13.39;61.36;100312.13;10576010;28;20024;-83
2022/05/16 05:42:16;;;;;;;7.10;1.98;;;;;;;13.93;59.78;100310.81;10494027;28;20134;-82
2022/05/16 05:47:18;;;;;;;4.65;2.40;;;;;;;14.35;58.32;100307.31;10509009;28;20055;-84
2022/05/16 05:52:23;;;;;;;4.78;2.75;;;;;;;15.21;55.75;100309.66;10579773;28;20045;-83
2022/05/16 05:57:26;;;;;;;4.07;1.95;;;;;;;15.73;55.14;100309.00;10488191;28;20111;-83
2022/05/16 06:02:33;;;;;;;3.70;2.42;;;;;;;16.04;54.59;100313.66;10573850;28;20469;-83
2022/05/16 06:07:36;;;;;;;5.15;2.38;;;;;;;16.67;52.49;100305.13;10495561;28;20035;-83
2022/05/16 06:12:39;;;;;;;3.13;1.80;;;;;;;17.36;50.33;100310.28;10512431;28;20032;-84
2022/05/16 06:17:43;;;;;;;5.63;2.08;;;;;;;17.87;48.75;100305.63;10501362;28;20040;-84
2022/05/16 06:22:44;;;;;;;12.18;2.20;;;;;;;18.47;48.65;100307.44;10494972;28;20071;-84
2022/05/16 06:27:46;;;;;;;3.95;1.75;;;;;;;18.51;47.58;100304.50;10483001;28;20048;-84
2022/05/16 06:33:03;;;;;;;3.90;2.25;;;;;;;18.59;47.73;100304.91;10491131;28;20044;-83
2022/05/16 06:38:05;;;;;;;4.90;2.00;;;;;;;19.05;48.73;100291.44;10489877;28;20485;-81
2022/05/16 06:43:08;;;;;;;4.00;1.60;;;;;;;19.38;47.26;100296.41;10558190;28;20044;-80
2022/05/16 06:48:10;;;;;;;5.60;2.13;;;;;;;19.70;45.44;100304.19;10558956;28;20044;-80
2022/05/16 06:53:15;;;;;;;4.53;1.63;;;;;;;19.72;46.43;100293.41;10466237;28;20426;-80
2022/05/16 06:58:17;;;;;;;4.18;1.50;;;;;;;19.93;46.22;100297.34;10552830;28;20390;-82
2022/05/16 07:03:19;;;;;;;4.40;2.00;;;;;;;21.01;43.14;100290.84;10552775;28;20524;-82
2022/05/16 07:08:22;;;;;;;5.15;1.67;;;;;;;20.73;43.88;100283.94;10551214;28;20040;-82
2022/05/16 07:13:25;;;;;;;4.28;1.90;;;;;;;21.51;42.12;100283.69;10469682;28;20040;-82
2022/05/16 07:18:30;;;;;;;5.53;2.00;;;;;;;21.63;42.60;100280.13;10578565;28;20051;-80
2022/05/16 07:23:31;;;;;;;3.55;1.90;;;;;;;21.39;43.64;100274.75;10502241;28;20069;-83
2022/05/16 07:28:33;;;;;;;3.65;2.03;;;;;;;22.20;41.33;100271.38;10498796;28;20063;-83
2022/05/16 07:33:35;;;;;;;4.22;1.70;;;;;;;22.15;42.72;100277.09;10585904;28;20051;-83
2022/05/16 07:38:37;;;;;;;5.78;1.83;;;;;;;22.06;43.10;100264.38;10586241;28;20048;-83
2022/05/16 07:43:39;;;;;;;4.35;2.05;;;;;;;22.81;41.12;100257.72;10484349;28;20044;-83
2022/05/16 07:48:42;;;;;;;3.22;1.77;;;;;;;23.29;39.92;100258.34;10587182;28;20024;-83
2022/05/16 07:53:43;;;;;;;4.57;1.85;;;;;;;23.87;39.44;100252.72;10573027;28;20062;-83
2022/05/16 07:58:45;;;;;;;4.60;1.73;;;;;;;23.94;39.49;100255.72;10568211;28;20052;-84
2022/05/16 08:03:46;;;;;;;4.85;1.67;;;;;;;23.87;39.21;100250.03;10565170;28;20096;-84
2022/05/16 08:14:08;;;;;;;6.47;2.00;;;;;;;24.17;39.09;100250.13;10561928;28;20044;-82
2022/05/16 08:19:09;;;;;;;9.38;2.40;;;;;;;24.10;39.88;100240.88;10475345;28;20060;-83
2022/05/16 08:24:11;;;;;;;3.58;1.88;;;;;;;24.48;38.19;100246.66;10560581;28;20032;-82
2022/05/16 08:29:13;;;;;;;9.15;2.15;;;;;;;24.97;39.03;100240.53;10560925;28;20098;-83
2022/05/16 08:34:14;;;;;;;4.85;1.65;;;;;;;25.32;37.97;100232.03;10558822;28;20040;-83
2022/05/16 08:44:39;;;;;;;3.55;1.60;;;;;;;26.16;35.09;100224.28;10467445;28;20067;-84
2022/05/16 08:49:50;;;;;;;5.75;1.98;;;;;;;26.17;35.84;100230.53;10468169;28;20059;-83
2022/05/16 08:54:59;;;;;;;3.78;1.58;;;;;;;26.17;35.92;100234.06;10469892;28;20044;-83
2022/05/16 09:00:08;;;;;;;4.70;1.65;;;;;;;26.88;33.92;100232.75;10564030;28;20039;-83
2022/05/16 09:05:20;;;;;;;4.75;1.25;;;;;;;26.95;33.71;100224.91;10586046;28;20103;-84
2022/05/16 09:10:25;;;;;;;4.55;1.25;;;;;;;27.21;33.04;100225.91;10466505;28;20040;-83
2022/05/16 09:15:43;;;;;;;7.57;1.90;;;;;;;27.33;31.42;100215.78;10558718;28;20107;-83
2022/05/16 09:21:19;;;;;;;5.60;1.75;;;;;;;27.76;32.18;100214.19;10481302;28;20056;-83
2022/05/16 09:26:38;;;;;;;4.28;1.70;;;;;;;27.71;31.33;100208.38;10487716;28;20048;-83
2022/05/16 09:31:43;;;;;;;6.13;2.10;;;;;;;27.97;32.46;100200.34;10501843;28;20044;-83
2022/05/16 09:36:46;;;;;;;;;;;;;;;28.04;31.26;100193.31;10585970;28;20067;-83
2022/05/16 09:42:03;;;;;;;15.13;2.97;;;;;;;28.32;31.30;100191.31;10482389;28;19920;-84
2022/05/16 09:47:34;;;;;;;6.00;1.92;;;;;;;28.76;30.30;100172.31;10563794;28;20051;-83
2022/05/16 09:52:46;;;;;;;7.75;1.75;;;;;;;28.81;29.61;100184.31;10477236;28;20108;-83
2022/05/16 09:57:56;;;;;;;5.28;2.20;;;;;;;28.12;30.87;100180.72;10561286;28;20044;-83
2022/05/16 10:03:23;;;;;;;2.75;1.40;;;;;;;28.53;30.95;100163.94;10474630;28;20082;-83
2022/05/16 10:08:32;;;;;;;4.38;1.77;;;;;;;28.87;29.86;100159.34;10473556;28;20113;-84
2022/05/16 10:13:35;;;;;;;5.57;2.03;;;;;;;29.13;30.09;100159.28;10485903;28;20036;-83
2022/05/16 10:18:45;;;;;;;4.22;1.50;;;;;;;28.69;32.19;100166.72;10591777;28;20073;-83
2022/05/16 10:23:47;;;;;;;3.30;1.60;;;;;;;29.15;29.55;100161.81;10579037;28;20040;-83
2022/05/16 10:28:57;;;;;;;4.25;1.70;;;;;;;29.45;28.40;100163.06;10453849;28;20047;-83
2022/05/16 10:34:06;;;;;;;5.68;1.77;;;;;;;29.80;29.16;100158.38;10454273;28;20588;-83
2022/05/16 10:39:15;;;;;;;5.38;1.75;;;;;;;29.94;28.82;100149.56;10470536;28;20046;-83
2022/05/16 10:44:32;;;;;;;4.15;1.63;;;;;;;30.15;27.97;100140.91;10470817;28;20048;-83
2022/05/16 10:49:41;;;;;;;4.82;1.50;;;;;;;29.51;28.49;100132.59;10568089;28;20069;-84
2022/05/16 10:54:43;;;;;;;3.75;1.60;;;;;;;29.77;29.37;100128.91;10565175;28;20043;-84
2022/05/16 11:00:00;;;;;;;4.85;2.00;;;;;;;29.45;29.79;100117.03;10481732;28;20047;-83
2022/05/16 11:05:39;;;;;;;4.80;2.10;;;;;;;29.55;29.72;100114.16;10479396;28;20040;-83
2022/05/16 11:11:01;;;;;;;5.38;1.70;;;;;;;29.57;28.81;100120.25;10483242;28;20051;-84
2022/05/16 11:16:18;;;;;;;6.32;1.90;;;;;;;29.52;28.57;100118.03;10499008;28;20035;-84
2022/05/16 11:21:36;;;;;;;4.70;1.80;;;;;;;29.98;28.30;100115.66;10579547;28;20047;-83
2022/05/16 11:27:09;;;;;;;2.63;1.73;;;;;;;29.53;28.11;100102.63;10505303;28;20048;-84
2022/05/16 11:38:46;;;;;;;;;;;;;;;29.21;28.11;100096.19;10191241;29;20051;-84
2022/05/16 11:44:31;;;;;;;5.05;1.92;;;;;;;28.92;30.56;100093.91;10428455;28;19921;-84
2022/05/16 11:50:31;;;;;;;3.15;1.80;;;;;;;28.97;30.25;100091.59;10428925;28;20061;-84
2022/05/16 12:08:50;;;;;;;2.70;1.73;;;;;;;29.62;28.84;100082.69;10265053;29;20051;-84
2022/05/16 12:15:14;;;;;;;4.63;2.30;;;;;;;28.89;28.73;100078.00;10305611;28;20041;-83
2022/05/16 12:20:53;;;;;;;2.95;1.35;;;;;;;29.63;29.54;100062.72;10268176;28;20065;-83
2022/05/16 12:27:19;;;;;;;4.28;1.80;;;;;;;29.55;28.66;100063.56;10475159;28;20052;-83
2022/05/16 12:32:47;;;;;;;3.25;1.50;;;;;;;29.98;27.39;100063.34;10327437;28;20076;-83
2022/05/16 12:38:26;;;;;;;5.85;1.77;;;;;;;29.53;28.91;100060.16;10335670;28;20051;-83
2022/05/16 12:44:00;;;;;;;;;;;;;;;30.05;27.82;100048.03;10406745;28;20049;-83
2022/05/16 12:49:44;;;;;;;3.67;1.70;;;;;;;29.79;27.57;100042.84;10464375;28;20028;-82
2022/05/16 12:55:26;;;;;;;4.03;1.50;;;;;;;29.98;26.49;100039.78;10416949;28;20057;-83
2022/05/16 13:00:46;;;;;;;3.25;1.40;;;;;;;29.62;27.09;100026.66;10458649;28;20057;-83
2022/05/16 13:06:06;;;;;;;3.22;1.50;;;;;;;29.55;27.39;100025.66;10452196;28;20048;-83
2022/05/16 13:11:56;;;;;;;3.80;1.60;;;;;;;29.57;28.02;100020.03;10587126;28;20016;-83
2022/05/16 13:17:04;;;;;;;5.93;1.60;;;;;;;29.44;28.08;100023.28;10586545;28;20067;-83
2022/05/16 13:22:21;;;;;;;3.53;1.60;;;;;;;28.94;28.71;100018.81;10502871;28;20031;-81
2022/05/16 13:33:31;;;;;;;3.80;1.50;;;;;;;29.65;27.33;100007.34;10575901;28;20049;-83
2022/05/16 13:39:21;;;;;;;5.97;1.85;;;;;;;29.37;27.56;99995.16;10573490;28;20040;-84
2022/05/16 13:44:55;;;;;;;3.17;1.48;;;;;;;29.13;27.62;99996.00;10479612;28;20051;-83
2022/05/16 13:50:00;;;;;;;3.00;1.70;;;;;;;29.17;27.71;99997.38;10474601;28;20128;-83
2022/05/16 13:55:21;;;;;;;4.22;1.75;;;;;;;28.64;27.58;99986.00;10497732;28;20028;-82
2022/05/16 14:00:36;;;;;;;4.82;1.80;;;;;;;28.44;27.74;99981.88;10492718;28;20090;-82
2022/05/16 14:05:59;;;;;;;3.25;1.42;;;;;;;28.26;29.02;99967.63;10486832;28;20036;-82
2022/05/16 14:11:03;;;;;;;4.63;1.70;;;;;;;28.22;27.85;99974.34;10489719;22;20079;-77
2022/05/16 14:16:12;;;;;;;9.48;2.15;;;;;;;27.76;29.14;99963.88;10510144;28;20044;-77
2022/05/16 14:21:18;;;;;;;6.88;1.65;;;;;;;28.06;29.57;99961.63;10508363;28;20109;-78
2022/05/16 14:26:25;;;;;;;3.47;1.70;;;;;;;28.45;28.59;99956.53;10492819;28;20060;-78
2022/05/16 14:31:31;;;;;;;2.80;1.52;;;;;;;28.37;29.39;99960.06;10471950;28;20048;-76
2022/05/16 14:36:40;;;;;;;3.58;1.90;;;;;;;28.20;30.15;99958.31;10505122;28;20052;-78
2022/05/16 14:42:07;;;;;;;7.15;2.03;;;;;;;28.11;29.62;99943.06;10505662;28;20048;-75
2022/05/16 14:47:23;;;;;;;5.00;1.70;;;;;;;28.28;29.77;99942.09;10476895;28;20529;-77
2022/05/16 14:52:27;;;;;;;4.22;1.40;;;;;;;28.35;29.55;99939.63;10487176;28;20032;-76
2022/05/16 14:57:37;;;;;;;4.65;1.98;;;;;;;28.07;29.41;99937.16;10504680;28;20074;-76
2022/05/16 15:07:58;;;;;;;5.03;1.70;;;;;;;27.67;29.62;99935.94;10502600;28;20052;-77
2022/05/16 15:13:00;;;;;;;3.72;1.77;;;;;;;27.59;29.94;99943.16;10500798;28;20041;-77
2022/05/16 15:18:02;;;;;;;3.45;1.55;;;;;;;27.11;31.87;99964.25;10502626;28;20082;-77
2022/05/16 15:23:04;;;;;;;5.85;1.40;;;;;;;26.08;34.12;99968.25;10488100;28;20047;-76
2022/05/16 15:28:09;;;;;;;3.55;1.70;;;;;;;25.38;36.07;99969.59;10504009;28;20048;-75
2022/05/16 15:33:12;;;;;;;2.80;1.23;;;;;;;24.94;37.65;99981.81;10486006;28;20136;-76
2022/05/16 15:38:14;;;;;;;6.82;1.45;;;;;;;24.62;39.00;99977.56;10513307;28;20075;-78
2022/05/16 15:43:16;;;;;;;5.10;1.40;;;;;;;24.42;40.43;99968.59;10489858;28;20047;-77
2022/05/16 15:48:20;;;;;;;3.78;1.30;;;;;;;24.15;40.74;99964.69;10483038;28;20478;-77
2022/05/16 15:53:22;;;;;;;10.48;1.67;;;;;;;24.14;41.68;99975.59;10500068;28;20040;-76
2022/05/16 15:58:23;;;;;;;8.23;1.55;;;;;;;23.87;43.65;99979.75;10500290;28;20057;-78
2022/05/16 16:08:57;;;;;;;9.23;1.95;;;;;;;23.12;47.18;99974.63;10502586;28;20068;-77
2022/05/16 16:13:59;;;;;;;8.60;1.75;;;;;;;22.76;48.92;99979.41;10502165;28;20049;-78
2022/05/16 16:19:01;;;;;;;4.10;1.98;;;;;;;22.58;49.87;99970.22;10507779;28;20040;-78
2022/05/16 16:24:03;;;;;;;9.45;1.90;;;;;;;22.46;51.17;99966.72;10515076;28;20048;-78
2022/05/16 16:29:08;;;;;;;5.20;2.05;;;;;;;22.35;51.73;99966.72;10515788;28;20470;-78
2022/05/16 16:34:12;;;;;;;3.78;1.52;;;;;;;22.28;52.24;99962.88;10526287;28;20045;-78
2022/05/16 16:39:15;;;;;;;3.97;1.85;;;;;;;22.14;52.01;99970.19;10511452;28;20098;-79
2022/05/16 16:44:19;;;;;;;2.20;1.38;;;;;;;22.08;51.57;99965.28;10533207;28;20078;-78
2022/05/16 16:49:20;;;;;;;9.50;3.22;;;;;;;22.02;52.50;99978.31;10513470;28;20040;-78
2022/05/16 16:59:46;;;;;;;4.00;2.35;;;;;;;21.94;51.99;99973.59;10504025;28;20049;-78
2022/05/16 17:04:51;;;;;;;4.95;2.17;;;;;;;21.80;54.18;99980.03;10507302;28;20040;-78
2022/05/16 17:09:54;;;;;;;3.40;2.30;;;;;;;21.58;54.76;99967.50;10541054;28;20045;-78
2022/05/16 17:14:56;;;;;;;8.57;2.17;;;;;;;21.45;55.58;99973.94;10524423;28;20062;-78
2022/05/16 17:19:58;;;;;;;2.58;2.00;;;;;;;21.43;55.73;99968.72;10545611;28;20045;-78
2022/05/16 17:25:00;;;;;;;5.22;2.40;;;;;;;21.40;55.70;99979.63;10507163;28;20048;-79
2022/05/16 17:30:02;;;;;;;2.63;1.70;;;;;;;21.75;55.66;99979.56;10512924;28;20139;-79
2022/05/16 17:35:07;;;;;;;4.53;2.10;;;;;;;21.56;56.72;99984.63;10517937;28;20052;-79
2022/05/16 17:40:09;;;;;;;3.55;1.77;;;;;;;21.49;55.58;99986.94;10511545;28;20044;-78
2022/05/16 17:45:12;;;;;;;1.92;1.58;;;;;;;21.52;53.50;99973.34;10496140;28;20494;-79
2022/05/16 17:50:15;;;;;;;4.20;2.47;;;;;;;21.45;54.78;99972.09;10495932;28;20131;-79
2022/05/16 17:55:17;;;;;;;5.60;2.45;;;;;;;21.39;55.04;99983.28;10511413;28;20041;-79
2022/05/16 18:00:19;;;;;;;3.90;2.42;;;;;;;21.46;54.25;99971.13;10513286;28;20043;-79
2022/05/16 18:05:21;;;;;;;5.05;3.42;;;;;;;21.50;55.34;99977.94;10513248;28;20032;-78
2022/05/16 18:10:23;;;;;;;7.60;6.03;;;;;;;21.31;57.91;99983.00;10512758;28;20041;-79
2022/05/16 18:15:27;;;;;;;9.55;7.40;;;;;;;21.48;56.71;99989.75;10512715;28;20037;-80
2022/05/16 18:20:29;;;;;;;10.30;7.53;;;;;;;21.69;57.50;100001.41;10510288;28;20070;-79
2022/05/16 18:25:31;;;;;;;7.53;6.75;;;;;;;21.45;58.96;100006.88;10508160;28;20044;-78
2022/05/16 18:30:34;;;;;;;6.53;4.10;;;;;;;21.19;61.10;100002.66;10473435;28;20135;-78
2022/05/16 18:35:37;;;;;;;3.85;3.15;;;;;;;21.01;62.47;99995.06;10494536;28;20044;-79
2022/05/16 18:40:42;;;;;;;6.22;3.03;;;;;;;21.13;61.71;99994.13;10523330;28;20040;-78
2022/05/16 18:51:14;;;;;;;4.82;2.60;;;;;;;20.73;63.19;100000.78;10527715;28;20578;-79
2022/05/16 18:56:21;;;;;;;4.05;2.40;;;;;;;20.81;62.71;100009.94;10523890;28;20032;-78
2022/05/16 19:01:22;;;;;;;3.78;2.70;;;;;;;20.94;61.72;100014.31;10515223;28;20048;-77
2022/05/16 19:06:25;;;;;;;3.90;2.85;;;;;;;20.83;61.96;100015.16;10495222;28;20114;-79
2022/05/16 19:11:45;;;;;;;5.97;2.70;;;;;;;20.82;60.51;100024.97;10514080;28;20044;-77
2022/05/16 19:16:47;;;;;;;4.03;2.35;;;;;;;20.57;62.03;100027.75;10498787;28;20498;-77
2022/05/16 19:21:50;;;;;;;5.05;2.90;;;;;;;20.82;59.85;100033.00;10490162;28;20086;-77
2022/05/16 19:26:52;;;;;;;3.80;2.13;;;;;;;20.75;59.95;100036.22;10470422;28;20516;-78
2022/05/16 19:32:03;;;;;;;3.45;2.20;;;;;;;20.58;60.31;100030.31;10509633;28;20414;-78
2022/05/16 19:37:07;;;;;;;3.65;2.10;;;;;;;20.45;60.71;100036.63;10508517;28;20068;-78
2022/05/16 19:42:19;;;;;;;3.83;2.00;;;;;;;20.45;60.61;100033.94;10513043;28;20039;-80
2022/05/16 19:47:22;;;;;;;4.28;2.33;;;;;;;20.55;60.13;100029.69;10500481;28;20051;-78
2022/05/16 19:52:23;;;;;;;3.35;2.58;;;;;;;20.65;59.57;100023.56;10515510;28;20058;-79
2022/05/16 19:57:25;;;;;;;3.78;2.45;;;;;;;21.05;58.76;100031.28;10506584;28;20045;-78
2022/05/16 20:02:27;;;;;;;4.07;2.72;;;;;;;20.88;58.60;100050.38;10508977;28;20044;-78
2022/05/16 20:07:31;;;;;;;2.67;2.35;;;;;;;20.84;58.67;100054.25;10490700;28;20078;-80
2022/05/16 20:12:33;;;;;;;5.50;3.95;;;;;;;20.70;60.35;100051.75;10489731;28;20121;-78
2022/05/16 20:17:35;;;;;;;4.50;3.20;;;;;;;20.48;61.80;100053.31;10486067;28;20048;-78
2022/05/16 20:28:01;;;;;;;6.00;3.38;;;;;;;20.10;66.59;100067.56;10487524;28;20049;-79
2022/05/16 20:33:03;;;;;;;9.83;4.47;;;;;;;19.95;72.75;100089.97;10470345;28;20041;-79
2022/05/16 20:38:05;;;;;;;10.57;6.25;;;;;;;19.40;80.76;100113.25;10486952;28;20340;-78
2022/05/16 20:43:09;;;;;;;7.82;5.00;;;;;;;19.05;84.94;100146.72;10502233;28;20037;-77
2022/05/16 20:48:11;;;;;;;7.85;4.15;;;;;;;18.44;90.90;100156.75;10484436;28;20398;-78
2022/05/16 20:53:14;;;;;;;5.18;3.78;;;;;;;18.04;94.24;100164.53;10499880;28;20052;-76
2022/05/16 20:58:20;;;;;;;6.63;3.53;;;;;;;17.95;96.35;100172.22;10499563;28;20406;-77
2022/05/16 21:03:21;;;;;;;4.53;3.20;;;;;;;17.76;97.19;100173.31;10464936;28;20509;-78
2022/05/16 21:08:23;;;;;;;6.10;3.78;;;;;;;17.55;100.00;100163.91;10463655;28;20132;-77
2022/05/16 21:13:45;;;;;;;6.25;3.50;;;;;;;17.32;100.00;100138.69;10467147;28;20043;-77
2022/05/16 21:18:46;;;;;;;4.28;3.70;;;;;;;17.73;99.90;100154.84;10498384;28;20044;-78
2022/05/16 21:23:48;;;;;;;4.93;3.92;;;;;;;17.72;100.00;100169.09;10480936;28;20052;-77
2022/05/16 21:28:50;;;;;;;5.45;3.75;;;;;;;17.54;100.00;100159.53;10499493;28;20036;-77
2022/05/16 21:33:51;;;;;;;4.93;3.63;;;;;;;17.47;100.00;100158.19;10500181;28;20052;-77
2022/05/16 21:38:53;;;;;;;5.93;3.30;;;;;;;17.35;100.00;100139.38;10480199;28;20090;-78
2022/05/16 21:49:15;;;;;;;5.68;3.10;;;;;;;17.26;100.00;100131.03;10498714;28;20048;-76
2022/05/16 21:54:17;;;;;;;3.70;3.40;;;;;;;17.14;100.00;100128.16;10498000;28;20044;-76
2022/05/16 21:59:18;;;;;;;4.32;3.53;;;;;;;17.17;100.00;100112.97;10479297;28;20510;-75
2022/05/16 22:04:20;;;;;;;3.53;3.00;;;;;;;17.26;100.00;100117.75;10480147;28;20083;-77
2022/05/16 22:09:21;;;;;;;5.03;2.95;;;;;;;17.44;100.00;100124.66;10480693;28;20486;-77
2022/05/16 22:14:23;;;;;;;3.70;2.70;;;;;;;17.47;100.00;100119.16;10499464;28;20090;-77
2022/05/16 22:19:24;;;;;;;3.95;2.38;;;;;;;17.43;98.98;100112.31;10498402;28;20509;-77
2022/05/16 22:24:26;;;;;;;3.22;2.92;;;;;;;17.17;100.00;100107.66;10487663;28;20052;-77
2022/05/16 22:29:28;;;;;;;4.60;4.18;;;;;;;17.03;100.00;100113.78;10505903;28;20394;-77
2022/05/16 22:34:29;;;;;;;7.75;5.28;;;;;;;17.00;100.00;100113.94;10504679;28;20040;-76
2022/05/16 22:39:31;;;;;;;6.60;6.00;;;;;;;16.88;100.00;100110.22;10486987;28;20456;-76
2022/05/16 22:44:33;;;;;;;7.20;6.50;;;;;;;16.94;100.00;100107.19;10505478;28;20098;-77
2022/05/16 22:49:34;;;;;;;7.35;6.65;;;;;;;16.91;100.00;100112.69;10504924;28;20070;-76
2022/05/16 22:54:36;;;;;;;6.75;6.05;;;;;;;16.92;100.00;100109.09;10503872;28;20071;-77
2022/05/16 22:59:42;;;;;;;5.57;5.07;;;;;;;16.94;100.00;100103.69;10514347;28;20052;-76
2022/05/16 23:04:44;;;;;;;;;;;;;;;17.06;100.00;100097.69;10533294;28;20117;-76
2022/05/16 23:09:46;;;;;;;7.50;3.85;;;;;;;17.19;100.00;100105.81;10503444;28;19924;-78
2022/05/16 23:14:48;;;;;;;3.90;3.55;;;;;;;17.21;100.00;100099.44;10502850;28;20436;-77
2022/05/16 23:19:49;;;;;;;4.70;4.22;;;;;;;17.25;100.00;100100.13;10501853;28;20106;-76
2022/05/16 23:24:51;;;;;;;4.68;4.28;;;;;;;17.13;100.00;100091.94;10502572;28;20044;-77
2022/05/16 23:29:56;;;;;;;5.22;4.72;;;;;;;16.97;100.00;100096.41;10501547;28;20050;-77
2022/05/16 23:34:58;;;;;;;4.50;4.10;;;;;;;17.00;100.00;100090.94;10500870;28;20032;-77
2022/05/16 23:39:59;;;;;;;6.00;4.22;;;;;;;17.06;100.00;100090.56;10501389;28;20391;-77
2022/05/16 23:45:02;;;;;;;4.68;4.28;;;;;;;17.11;100.00;100088.50;10502346;28;20044;-77
2022/05/16 23:50:07;;;;;;;5.50;4.18;;;;;;;17.49;100.00;100082.75;10482951;28;20127;-77
2022/05/16 23:55:11;;;;;;;3.58;3.28;;;;;;;17.44;100.00;100083.94;10501559;28;20106;-77
